createdAt,value
2019-05-16T00:01:45.313Z,80.90
2019-05-16T00:04:17.752Z,79.20
2019-05-16T00:06:48.109Z,79.60
2019-05-16T00:09:18.373Z,80.10
2019-05-16T00:11:48.885Z,79.80
2019-05-16T00:14:20.161Z,80.30
2019-05-16T00:16:50.257Z,80.70
2019-05-16T00:19:20.360Z,80.80
2019-05-16T00:21:50.372Z,81.00
2019-05-16T00:24:20.408Z,80.40
2019-05-16T00:26:50.441Z,81.00
2019-05-16T00:29:20.556Z,81.10
2019-05-16T00:31:51.124Z,81.30
2019-05-16T00:34:23.040Z,81.20
2019-05-16T00:36:53.069Z,81.30
2019-05-16T00:39:23.072Z,81.60
2019-05-16T00:41:53.180Z,81.60
2019-05-16T00:44:23.252Z,82.30
2019-05-16T00:46:53.356Z,83.20
2019-05-16T00:49:23.428Z,82.00
2019-05-16T00:51:53.532Z,83.20
2019-05-16T00:54:23.676Z,83.10
2019-05-16T00:56:54.076Z,82.90
2019-05-16T00:59:24.256Z,83.10
2019-05-16T01:01:54.369Z,83.30
2019-05-16T01:04:24.447Z,83.50
2019-05-16T01:06:54.414Z,82.60
2019-05-16T01:09:24.516Z,83.50
2019-05-16T01:11:54.722Z,84.00
2019-05-16T01:14:24.824Z,85.50
2019-05-16T01:16:54.832Z,85.60
2019-05-16T01:19:24.867Z,85.00
2019-05-16T01:21:54.835Z,85.80
2019-05-16T01:24:24.764Z,85.60
2019-05-16T01:26:54.974Z,85.10
2019-05-16T01:29:24.943Z,85.50
2019-05-16T01:31:54.991Z,85.20
2019-05-16T01:34:25.097Z,86.00
2019-05-16T01:36:55.175Z,85.70
2019-05-16T01:39:25.284Z,86.30
2019-05-16T01:41:55.225Z,86.10
2019-05-16T01:44:25.260Z,85.90
2019-05-16T01:46:55.340Z,86.00
2019-05-16T01:49:25.312Z,87.00
2019-05-16T01:51:57.724Z,86.70
2019-05-16T01:54:28.296Z,86.90
2019-05-16T01:56:59.501Z,86.60
2019-05-16T01:59:29.649Z,87.00
2019-05-16T02:02:00.935Z,87.40
2019-05-16T02:04:31.181Z,87.40
2019-05-16T02:07:01.264Z,86.70
2019-05-16T02:09:31.440Z,86.70
2019-05-16T02:12:01.529Z,86.20
2019-05-16T02:14:31.635Z,85.30
2019-05-16T02:17:01.653Z,85.50
2019-05-16T02:19:31.757Z,84.10
2019-05-16T02:22:01.839Z,84.40
2019-05-16T02:24:31.877Z,85.40
2019-05-16T02:27:03.051Z,85.10
2019-05-16T02:29:33.068Z,84.30
2019-05-16T02:32:03.176Z,83.80
2019-05-16T02:34:33.258Z,84.60
2019-05-16T02:37:18.331Z,84.80
2019-05-16T02:39:35.005Z,85.00
2019-05-16T02:42:05.102Z,84.90
2019-05-16T02:44:35.186Z,85.00
2019-05-16T02:47:05.306Z,85.50
2019-05-16T02:49:35.330Z,86.00
2019-05-16T02:52:05.433Z,85.00
2019-05-16T02:54:35.524Z,85.80
2019-05-16T02:57:05.632Z,86.00
2019-05-16T02:59:35.738Z,86.40
2019-05-16T03:02:06.644Z,86.60
2019-05-16T03:04:40.075Z,86.80
2019-05-16T03:07:13.544Z,87.40
2019-05-16T03:09:42.330Z,87.30
2019-05-16T03:12:12.840Z,87.50
2019-05-16T03:14:45.055Z,87.60
2019-05-16T03:17:21.349Z,87.30
2019-05-16T03:19:52.567Z,87.80
2019-05-16T03:22:25.860Z,89.10
2019-05-16T03:24:55.831Z,89.50
2019-05-16T03:27:25.920Z,89.50
2019-05-16T03:29:56.040Z,89.90
2019-05-16T03:32:25.995Z,90.00
2019-05-16T03:34:56.038Z,89.80
2019-05-16T03:37:26.123Z,90.30
2019-05-16T03:39:56.170Z,90.40
2019-05-16T03:42:26.121Z,90.30
2019-05-16T03:44:56.088Z,90.80
2019-05-16T03:47:26.108Z,90.40
2019-05-16T03:49:56.082Z,90.70
2019-05-16T03:52:26.120Z,91.10
2019-05-16T03:54:56.141Z,91.00
2019-05-16T03:57:26.187Z,91.00
2019-05-16T03:59:56.207Z,91.30
2019-05-16T04:02:26.387Z,91.10
2019-05-16T04:04:56.407Z,91.10
2019-05-16T04:07:26.520Z,91.10
2019-05-16T04:09:56.624Z,91.30
2019-05-16T04:12:26.669Z,90.80
2019-05-16T04:14:56.623Z,91.00
2019-05-16T04:17:26.742Z,91.00
2019-05-16T04:19:56.764Z,91.00
2019-05-16T04:22:26.809Z,91.00
2019-05-16T04:24:56.769Z,90.80
2019-05-16T04:27:30.829Z,90.90
2019-05-16T04:30:01.573Z,90.70
2019-05-16T04:32:31.724Z,90.50
2019-05-16T04:35:02.543Z,90.70
2019-05-16T04:37:32.868Z,90.60
2019-05-16T04:40:03.185Z,90.70
2019-05-16T04:42:33.252Z,90.50
2019-05-16T04:45:04.085Z,90.80
2019-05-16T04:47:34.270Z,90.50
2019-05-16T04:50:06.909Z,90.10
2019-05-16T04:52:37.013Z,90.30
2019-05-16T04:55:11.359Z,90.20
2019-05-16T04:57:42.113Z,90.00
2019-05-16T05:00:12.094Z,90.00
2019-05-16T05:02:42.201Z,89.90
2019-05-16T05:05:13.088Z,89.90
2019-05-16T05:07:43.080Z,89.10
2019-05-16T05:10:13.588Z,88.70
2019-05-16T05:12:43.604Z,88.50
2019-05-16T05:15:14.021Z,88.70
2019-05-16T05:17:44.129Z,87.50
2019-05-16T05:20:14.352Z,87.60
2019-05-16T05:22:45.348Z,87.40
2019-05-16T05:25:15.463Z,87.30
2019-05-16T05:27:45.482Z,87.70
2019-05-16T05:30:15.690Z,88.90
2019-05-16T05:32:45.633Z,88.80
2019-05-16T05:35:15.950Z,88.20
2019-05-16T05:37:45.972Z,87.60
2019-05-16T05:40:16.380Z,87.10
2019-05-16T05:42:46.400Z,86.20
2019-05-16T05:45:16.620Z,86.00
2019-05-16T05:47:46.707Z,85.70
2019-05-16T05:50:17.216Z,86.60
2019-05-16T05:52:47.181Z,86.60
2019-05-16T05:55:19.808Z,86.00
2019-05-16T05:57:50.717Z,85.20
2019-05-16T06:00:23.480Z,85.00
2019-05-16T06:02:53.668Z,86.40
2019-05-16T06:05:23.751Z,85.90
2019-05-16T06:07:53.867Z,85.10
2019-05-16T06:10:23.957Z,84.40
2019-05-16T06:12:54.000Z,83.90
2019-05-16T06:15:24.288Z,84.20
2019-05-16T06:17:54.331Z,82.40
2019-05-16T06:20:24.356Z,83.80
2019-05-16T06:22:54.472Z,84.50
2019-05-16T06:25:24.501Z,84.80
2019-05-16T06:27:54.546Z,84.30
2019-05-16T06:30:24.628Z,83.30
2019-05-16T06:32:54.760Z,84.00
2019-05-16T06:35:24.768Z,83.30
2019-05-16T06:37:54.894Z,82.90
2019-05-16T06:40:25.060Z,82.70
2019-05-16T06:42:55.086Z,82.30
2019-05-16T06:45:25.169Z,83.00
2019-05-16T06:47:55.334Z,81.60
2019-05-16T06:50:25.460Z,81.10
2019-05-16T06:52:55.536Z,79.80
2019-05-16T06:55:25.575Z,80.80
2019-05-16T06:57:57.222Z,80.70
2019-05-16T07:00:29.897Z,81.30
2019-05-16T07:03:00.385Z,79.90
2019-05-16T07:05:30.624Z,77.30
2019-05-16T07:08:00.708Z,79.20
2019-05-16T07:10:30.812Z,77.40
2019-05-16T07:13:00.903Z,76.30
2019-05-16T07:15:32.308Z,76.30
2019-05-16T07:18:02.453Z,75.80
2019-05-16T07:20:32.571Z,76.40
2019-05-16T07:23:02.707Z,75.60
2019-05-16T07:25:32.710Z,75.70
2019-05-16T07:28:02.818Z,76.90
2019-05-16T07:30:33.980Z,77.70
2019-05-16T07:33:04.005Z,77.20
2019-05-16T07:35:34.057Z,78.20
2019-05-16T07:38:04.153Z,75.70
2019-05-16T07:40:34.239Z,75.40
2019-05-16T07:43:04.344Z,74.10
2019-05-16T07:45:34.420Z,73.50
2019-05-16T07:48:04.467Z,75.60
2019-05-16T07:50:34.461Z,75.50
2019-05-16T07:53:04.659Z,75.20
2019-05-16T07:55:34.699Z,74.40
2019-05-16T07:58:05.188Z,73.10
2019-05-16T08:00:49.581Z,73.30
2019-05-16T08:03:07.030Z,73.30
2019-05-16T08:05:37.055Z,72.80
2019-05-16T08:08:07.208Z,72.20
2019-05-16T08:10:45.361Z,72.90
2019-05-16T08:13:12.207Z,70.40
2019-05-16T08:15:40.865Z,70.40
2019-05-16T08:18:11.189Z,71.60
2019-05-16T08:20:41.782Z,71.60
2019-05-16T08:23:12.054Z,69.30
2019-05-16T08:25:42.159Z,69.00
2019-05-16T08:28:12.541Z,66.10
2019-05-16T08:30:42.631Z,66.80
2019-05-16T08:33:13.808Z,66.90
2019-05-16T08:35:44.972Z,65.20
2019-05-16T08:38:15.079Z,64.10
2019-05-16T08:41:04.434Z,62.80
2019-05-16T08:43:17.016Z,63.30
2019-05-16T08:45:47.103Z,64.60
2019-05-16T08:48:17.218Z,66.80
2019-05-16T08:50:54.452Z,69.60
2019-05-16T08:53:21.598Z,69.20
2019-05-16T08:55:51.032Z,70.00
2019-05-16T08:58:22.729Z,68.40
2019-05-16T09:00:56.161Z,65.70
2019-05-16T09:03:24.941Z,65.60
2019-05-16T09:05:55.094Z,65.10
2019-05-16T09:08:25.134Z,64.00
2019-05-16T09:11:01.651Z,63.30
2019-05-16T09:13:27.927Z,62.20
2019-05-16T09:15:58.223Z,62.40
2019-05-16T09:18:29.145Z,60.80
2019-05-16T09:20:59.416Z,61.50
2019-05-16T09:23:29.499Z,60.70
2019-05-16T09:25:59.611Z,60.40
2019-05-16T09:28:29.684Z,61.10
2019-05-16T09:30:59.776Z,60.60
2019-05-16T09:33:30.067Z,62.30
2019-05-16T09:36:00.357Z,61.60
2019-05-16T09:38:30.536Z,61.30
2019-05-16T09:41:01.137Z,61.30
2019-05-16T09:43:31.107Z,59.90
2019-05-16T09:46:03.922Z,69.50
2019-05-16T09:48:32.847Z,62.50
2019-05-16T09:51:02.928Z,61.70
2019-05-16T09:53:32.968Z,61.60
2019-05-16T09:56:06.815Z,59.90
2019-05-16T09:58:37.325Z,62.70
2019-05-16T10:01:07.645Z,62.80
2019-05-16T10:03:38.032Z,61.90
2019-05-16T10:06:08.311Z,62.70
2019-05-16T10:08:38.569Z,61.90
2019-05-16T10:11:08.675Z,62.10
2019-05-16T10:13:38.769Z,60.40
2019-05-16T10:16:09.899Z,61.20
2019-05-16T10:18:39.997Z,61.90
2019-05-16T10:21:10.173Z,60.00
2019-05-16T10:23:40.306Z,62.00
2019-05-16T10:26:10.447Z,63.30
2019-05-16T10:28:40.613Z,61.10
2019-05-16T10:31:10.839Z,60.00
2019-05-16T10:33:40.944Z,59.20
2019-05-16T10:36:11.157Z,61.80
2019-05-16T10:38:41.256Z,61.30
2019-05-16T10:41:11.408Z,62.40
2019-05-16T10:43:41.461Z,61.50
2019-05-16T10:46:11.542Z,61.00
2019-05-16T10:48:41.649Z,61.00
2019-05-16T10:51:11.759Z,61.20
2019-05-16T10:54:04.564Z,61.00
2019-05-16T10:56:13.833Z,60.80
2019-05-16T10:59:05.027Z,59.90
2019-05-16T11:01:26.662Z,59.40
2019-05-16T11:03:49.246Z,58.00
2019-05-16T11:06:25.589Z,57.30
2019-05-16T11:08:50.814Z,58.50
2019-05-16T11:11:20.975Z,58.60
2019-05-16T11:13:51.349Z,59.10
2019-05-16T11:16:21.340Z,59.10
2019-05-16T11:18:51.424Z,58.30
2019-05-16T11:21:21.441Z,57.50
2019-05-16T11:23:51.548Z,56.80
2019-05-16T11:26:21.632Z,57.00
2019-05-16T11:28:51.667Z,56.90
2019-05-16T11:31:21.773Z,55.60
2019-05-16T11:33:51.904Z,56.30
2019-05-16T11:36:21.924Z,55.00
2019-05-16T11:38:52.036Z,55.40
2019-05-16T11:41:22.150Z,53.80
2019-05-16T11:43:52.264Z,53.90
2019-05-16T11:46:22.380Z,52.80
2019-05-16T11:48:52.470Z,52.30
2019-05-16T11:51:22.518Z,53.90
2019-05-16T11:53:52.613Z,56.30
2019-05-16T11:56:22.647Z,55.80
2019-05-16T11:58:52.673Z,55.90
2019-05-16T12:01:22.848Z,57.30
2019-05-16T12:03:52.950Z,57.10
2019-05-16T12:06:23.786Z,56.30
2019-05-16T12:08:53.735Z,59.60
2019-05-16T12:11:23.860Z,58.80
2019-05-16T12:13:56.557Z,59.70
2019-05-16T12:16:27.518Z,60.70
2019-05-16T12:18:57.831Z,59.60
2019-05-16T12:21:27.854Z,61.20
2019-05-16T12:23:57.828Z,61.10
2019-05-16T12:26:28.332Z,61.80
2019-05-16T12:28:58.451Z,61.80
2019-05-16T12:31:32.363Z,62.90
2019-05-16T12:34:00.321Z,62.50
2019-05-16T12:36:31.638Z,61.80
2019-05-16T12:39:01.764Z,61.70
2019-05-16T12:41:32.016Z,61.80
2019-05-16T12:44:02.161Z,62.10
2019-05-16T12:46:33.247Z,62.70
2019-05-16T12:49:03.973Z,63.60
2019-05-16T12:51:34.065Z,63.90
2019-05-16T12:54:04.316Z,62.90
2019-05-16T12:56:34.325Z,62.50
2019-05-16T12:59:04.510Z,64.80
2019-05-16T13:01:38.423Z,65.50
2019-05-16T13:04:06.804Z,65.80
2019-05-16T13:06:37.187Z,65.30
2019-05-16T13:09:07.992Z,66.30
2019-05-16T13:11:38.186Z,66.70
2019-05-16T13:14:11.235Z,66.70
2019-05-16T13:16:42.289Z,67.10
2019-05-16T13:19:13.454Z,68.50
2019-05-16T13:21:43.632Z,68.20
2019-05-16T13:24:13.800Z,67.80
2019-05-16T13:26:43.909Z,68.60
2019-05-16T13:29:14.104Z,68.20
2019-05-16T13:31:47.828Z,67.70
2019-05-16T13:34:19.357Z,68.10
2019-05-16T13:36:49.497Z,68.10
2019-05-16T13:39:19.593Z,70.10
2019-05-16T13:41:49.866Z,70.40
2019-05-16T13:44:23.189Z,70.80
2019-05-16T13:46:51.411Z,70.50
2019-05-16T13:49:21.429Z,71.10
2019-05-16T13:51:51.641Z,71.80
2019-05-16T13:54:21.864Z,72.00
2019-05-16T13:56:51.895Z,71.70
2019-05-16T13:59:22.010Z,72.90
2019-05-16T14:01:52.243Z,73.90
2019-05-16T14:04:22.287Z,73.40
2019-05-16T14:06:55.472Z,73.50
2019-05-16T14:09:26.710Z,73.50
2019-05-16T14:11:56.433Z,74.30
2019-05-16T14:14:37.873Z,73.40
2019-05-16T14:16:58.448Z,74.50
2019-05-16T14:19:28.432Z,72.60
2019-05-16T14:21:58.393Z,72.50
2019-05-16T14:24:28.381Z,73.00
2019-05-16T14:26:58.456Z,72.60
2019-05-16T14:29:28.408Z,73.20
2019-05-16T14:31:58.393Z,72.00
2019-05-16T14:34:28.488Z,73.10
2019-05-16T14:36:58.623Z,73.20
2019-05-16T14:39:28.790Z,72.50
2019-05-16T14:41:58.867Z,72.70
2019-05-16T14:44:28.965Z,73.80
2019-05-16T14:46:59.085Z,73.60
2019-05-16T14:49:31.772Z,72.90
2019-05-16T14:52:01.839Z,73.50
2019-05-16T14:54:31.923Z,73.30
2019-05-16T14:57:02.309Z,72.60
2019-05-16T14:59:33.685Z,72.60
2019-05-16T15:02:07.016Z,72.50
2019-05-16T15:04:37.564Z,73.30
2019-05-16T15:07:07.546Z,73.30
2019-05-16T15:09:38.180Z,73.10
2019-05-16T15:12:08.268Z,71.90
2019-05-16T15:14:39.490Z,72.50
2019-05-16T15:17:09.584Z,71.90
2019-05-16T15:19:39.845Z,71.40
2019-05-16T15:22:09.976Z,72.70
2019-05-16T15:24:40.033Z,73.20
2019-05-16T15:27:10.331Z,72.90
2019-05-16T15:29:41.153Z,72.50
2019-05-16T15:32:11.256Z,72.50
2019-05-16T15:34:41.399Z,73.30
2019-05-16T15:37:11.654Z,72.50
2019-05-16T15:39:41.772Z,72.20
2019-05-16T15:42:12.385Z,72.00
2019-05-16T15:44:42.528Z,72.60
2019-05-16T15:47:12.851Z,72.80
2019-05-16T15:49:43.069Z,72.30
2019-05-16T15:52:13.483Z,73.20
2019-05-16T15:54:43.957Z,73.40
2019-05-16T15:57:14.249Z,72.00
2019-05-16T15:59:46.806Z,73.20
2019-05-16T16:02:17.669Z,73.50
2019-05-16T16:04:48.051Z,74.30
2019-05-16T16:07:19.238Z,73.60
2019-05-16T16:09:49.362Z,74.60
2019-05-16T16:12:19.608Z,74.80
2019-05-16T16:14:49.880Z,75.20
2019-05-16T16:17:20.152Z,74.90
2019-05-16T16:19:50.411Z,75.20
2019-05-16T16:22:20.515Z,75.60
2019-05-16T16:24:50.614Z,75.40
2019-05-16T16:27:20.664Z,75.80
2019-05-16T16:29:50.690Z,76.50
2019-05-16T16:32:20.843Z,76.20
2019-05-16T16:34:51.527Z,76.20
2019-05-16T16:37:21.655Z,76.60
2019-05-16T16:39:51.705Z,76.90
2019-05-16T16:42:21.749Z,77.70
2019-05-16T16:44:51.793Z,78.20
2019-05-16T16:47:21.896Z,78.40
2019-05-16T16:49:52.022Z,78.20
2019-05-16T16:52:22.124Z,77.80
2019-05-16T16:54:52.363Z,78.00
2019-05-16T16:57:22.299Z,78.30
2019-05-16T16:59:52.358Z,78.30
2019-05-16T17:02:22.384Z,78.40
2019-05-16T17:04:52.561Z,78.20
2019-05-16T17:07:22.574Z,78.40
2019-05-16T17:09:52.751Z,79.20
2019-05-16T17:12:22.775Z,78.40
2019-05-16T17:14:52.752Z,78.50
2019-05-16T17:17:22.849Z,79.20
2019-05-16T17:19:52.903Z,79.30
2019-05-16T17:22:23.500Z,79.40
2019-05-16T17:24:53.620Z,79.20
2019-05-16T17:27:23.891Z,79.90
2019-05-16T17:29:56.873Z,79.40
2019-05-16T17:32:27.496Z,80.10
2019-05-16T17:34:57.715Z,79.80
2019-05-16T17:37:27.832Z,79.30
2019-05-16T17:39:57.927Z,79.40
2019-05-16T17:42:28.124Z,79.70
2019-05-16T17:44:58.161Z,79.70
2019-05-16T17:47:28.315Z,79.40
2019-05-16T17:49:58.476Z,79.70
2019-05-16T17:52:28.531Z,78.80
2019-05-16T17:54:58.639Z,79.20
2019-05-16T17:57:28.758Z,79.90
2019-05-16T17:59:58.856Z,79.90
2019-05-16T18:02:28.968Z,80.50
2019-05-16T18:04:59.140Z,80.40
2019-05-16T18:07:29.328Z,80.10
2019-05-16T18:09:59.453Z,80.70
2019-05-16T18:12:29.552Z,81.00
2019-05-16T18:14:59.762Z,81.40
2019-05-16T18:17:29.792Z,81.00
2019-05-16T18:19:59.944Z,81.50
2019-05-16T18:22:29.982Z,81.60
2019-05-16T18:25:00.031Z,82.10
2019-05-16T18:27:30.133Z,82.20
2019-05-16T18:30:00.248Z,81.80
2019-05-16T18:32:30.369Z,81.50
2019-05-16T18:35:00.588Z,82.20
2019-05-16T18:37:33.328Z,82.60
2019-05-16T18:40:02.586Z,82.80
2019-05-16T18:42:33.773Z,82.80
2019-05-16T18:45:07.908Z,82.20
2019-05-16T18:47:38.087Z,82.70
2019-05-16T18:50:08.659Z,83.60
2019-05-16T18:52:38.723Z,83.60
2019-05-16T18:55:09.315Z,83.20
2019-05-16T18:57:39.510Z,83.40
2019-05-16T19:00:11.057Z,83.50
2019-05-16T19:02:41.298Z,83.30
2019-05-16T19:05:11.725Z,83.40
2019-05-16T19:07:41.937Z,83.90
2019-05-16T19:10:12.159Z,83.50
2019-05-16T19:12:42.329Z,84.00
2019-05-16T19:15:12.648Z,84.20
2019-05-16T19:17:42.814Z,83.80
2019-05-16T19:20:13.228Z,84.30
2019-05-16T19:22:43.323Z,84.20
2019-05-16T19:25:14.215Z,84.30
2019-05-16T19:27:46.452Z,84.70
2019-05-16T19:30:17.085Z,83.70
2019-05-16T19:32:47.167Z,83.70
2019-05-16T19:35:17.591Z,84.70
2019-05-16T19:37:47.761Z,84.50
2019-05-16T19:40:18.284Z,84.10
2019-05-16T19:42:48.443Z,84.70
2019-05-16T19:45:19.171Z,85.00
2019-05-16T19:47:49.191Z,85.10
2019-05-16T19:50:19.855Z,85.70
2019-05-16T19:52:49.884Z,85.90
2019-05-16T19:55:20.189Z,86.10
2019-05-16T19:57:50.238Z,86.10
2019-05-16T20:00:20.941Z,86.50
2019-05-16T20:02:50.985Z,86.90
2019-05-16T20:05:21.616Z,88.00
2019-05-16T20:07:51.710Z,87.20
2019-05-16T20:10:23.472Z,86.70
2019-05-16T20:12:53.500Z,86.80
2019-05-16T20:15:23.621Z,86.90
2019-05-16T20:17:57.763Z,86.40
2019-05-16T20:20:27.496Z,87.10
2019-05-16T20:22:57.173Z,87.20
2019-05-16T20:25:27.295Z,87.20
2019-05-16T20:27:57.320Z,86.80
2019-05-16T20:30:27.445Z,86.60
2019-05-16T20:32:57.499Z,86.60
2019-05-16T20:35:27.791Z,87.30
2019-05-16T20:37:57.825Z,87.20
2019-05-16T20:40:27.951Z,87.40
2019-05-16T20:42:59.458Z,87.20
2019-05-16T20:45:29.645Z,87.30
2019-05-16T20:48:10.866Z,87.50
2019-05-16T20:50:31.489Z,87.70
2019-05-16T20:53:01.579Z,87.90
2019-05-16T20:55:31.704Z,87.90
2019-05-16T20:58:01.796Z,87.30
2019-05-16T21:00:31.989Z,88.50
2019-05-16T21:03:02.084Z,88.40
2019-05-16T21:05:32.219Z,88.50
2019-05-16T21:08:02.308Z,88.50
2019-05-16T21:10:32.433Z,88.40
2019-05-16T21:13:02.528Z,88.20
2019-05-16T21:15:34.122Z,88.10
2019-05-16T21:18:04.380Z,89.30
2019-05-16T21:20:34.432Z,88.80
2019-05-16T21:23:04.552Z,88.60
2019-05-16T21:25:36.964Z,89.30
2019-05-16T21:28:07.964Z,88.70
2019-05-16T21:30:38.364Z,88.80
2019-05-16T21:33:08.423Z,88.90
2019-05-16T21:35:38.516Z,89.30
2019-05-16T21:38:09.050Z,89.90
2019-05-16T21:40:39.201Z,90.20
2019-05-16T21:43:09.249Z,90.10
2019-05-16T21:45:39.455Z,90.20
2019-05-16T21:48:09.437Z,90.50
2019-05-16T21:50:39.457Z,91.00
2019-05-16T21:53:09.571Z,90.80
2019-05-16T21:55:39.612Z,91.00
2019-05-16T21:58:09.603Z,90.80
2019-05-16T22:00:47.467Z,91.00
2019-05-16T22:03:17.932Z,91.00
2019-05-16T22:05:48.095Z,91.10
2019-05-16T22:08:18.284Z,91.00
2019-05-16T22:10:49.382Z,91.40
2019-05-16T22:13:21.025Z,91.60
2019-05-16T22:15:51.188Z,91.50
2019-05-16T22:18:21.395Z,91.80
2019-05-16T22:20:51.579Z,91.80
2019-05-16T22:23:21.728Z,91.70
2019-05-16T22:25:51.845Z,91.80
2019-05-16T22:28:22.000Z,92.00
2019-05-16T22:30:52.187Z,91.90
2019-05-16T22:33:22.276Z,92.20
2019-05-16T22:35:52.324Z,92.30
2019-05-16T22:38:22.479Z,92.70
2019-05-16T22:40:52.528Z,92.20
2019-05-16T22:43:22.689Z,92.30
2019-05-16T22:45:52.804Z,92.50
2019-05-16T22:48:22.752Z,92.50
2019-05-16T22:50:52.800Z,92.50
2019-05-16T22:53:22.824Z,92.60
2019-05-16T22:55:52.807Z,92.70
2019-05-16T22:58:22.776Z,92.80
2019-05-16T23:00:53.909Z,92.80
2019-05-16T23:03:23.932Z,92.90
2019-05-16T23:05:56.396Z,93.00
2019-05-16T23:08:27.240Z,93.10
2019-05-16T23:10:57.447Z,92.80
2019-05-16T23:13:27.564Z,92.70
2019-05-16T23:15:57.584Z,92.70
2019-05-16T23:18:27.668Z,92.90
2019-05-16T23:20:57.760Z,93.10
2019-05-16T23:23:27.856Z,93.10
2019-05-16T23:25:57.877Z,93.30
2019-05-16T23:28:27.920Z,93.20
2019-05-16T23:30:57.963Z,93.20
2019-05-16T23:33:27.944Z,93.20
2019-05-16T23:35:57.890Z,93.20
2019-05-16T23:38:28.052Z,93.10
2019-05-16T23:40:58.148Z,93.20
2019-05-16T23:43:28.259Z,93.40
2019-05-16T23:45:58.279Z,93.60
2019-05-16T23:48:28.256Z,93.60
2019-05-16T23:50:58.237Z,93.60
2019-05-16T23:53:28.332Z,93.70
2019-05-16T23:55:58.445Z,93.90
2019-05-16T23:58:28.529Z,94.10
